XNO05M EGPH-EGHQ
Flight info
| Callsign | XNO05M |
|---|---|
| Flight time | 1h 6m |
| Altitude | 25000 |
| Route | TLA N864 EGTOC/N0441F350 DCT NOKIN N862 KARNO/N0437F340 DCT ALHUP DCT ABWIV DCT PACSE/N0392F240 N92 EXMOR |
| Aircraft | A320/M-SDE3FGHIRWY/LB1 |
Departure
| Time | 2026-05-05 21:03 |
|---|---|
| Airport | Edinburgh Airport (EGPH) |
Arrival
| Time | 2026-05-05 22:09 |
|---|---|
| Airport | Cornwall Airport Newquay (EGHQ) |
| Time | Latitude | Longitude | Altitude | Speed | Heading |
|---|---|---|---|---|---|
| 2026-05-05 19:59 | 55.94939 | -3.36355 | 107 ft | 0 kts | 148° |
| 2026-05-05 20:01 | 55.95018 | -3.36080 | 109 ft | 0 kts | 249° |
| 2026-05-05 20:51 | 55.95019 | -3.36075 | 107 ft | 1 kts | 249° |
| 2026-05-05 20:51 | 55.95026 | -3.36045 | 105 ft | 3 kts | 248° |
| 2026-05-05 20:51 | 55.95033 | -3.36012 | 105 ft | 3 kts | 248° |
| 2026-05-05 20:51 | 55.95041 | -3.35979 | 105 ft | 3 kts | 244° |
| 2026-05-05 20:52 | 55.95050 | -3.35948 | 104 ft | 3 kts | 228° |
| 2026-05-05 20:52 | 55.95064 | -3.35927 | 104 ft | 3 kts | 188° |
| 2026-05-05 20:52 | 55.95073 | -3.35926 | 105 ft | 2 kts | 123° |
| 2026-05-05 20:52 | 55.95075 | -3.35930 | 105 ft | 0 kts | 119° |
| 2026-05-05 20:56 | 55.95074 | -3.35929 | 106 ft | 1 kts | 119° |
| 2026-05-05 20:56 | 55.95068 | -3.35907 | 104 ft | 3 kts | 119° |
| 2026-05-05 20:57 | 55.95051 | -3.35825 | 106 ft | 7 kts | 90° |
| 2026-05-05 20:57 | 55.95075 | -3.35787 | 107 ft | 8 kts | 12° |
| 2026-05-05 20:57 | 55.95124 | -3.35870 | 105 ft | 12 kts | 302° |
| 2026-05-05 20:57 | 55.95194 | -3.35984 | 102 ft | 16 kts | 315° |
| 2026-05-05 20:58 | 55.95172 | -3.36171 | 103 ft | 16 kts | 239° |
| 2026-05-05 20:58 | 55.95109 | -3.36353 | 104 ft | 18 kts | 238° |
| 2026-05-05 20:58 | 55.95045 | -3.36544 | 107 ft | 19 kts | 240° |
| 2026-05-05 20:58 | 55.94972 | -3.36760 | 106 ft | 22 kts | 239° |
| 2026-05-05 20:59 | 55.94886 | -3.37010 | 104 ft | 25 kts | 239° |
| 2026-05-05 20:59 | 55.94793 | -3.37287 | 106 ft | 27 kts | 239° |
| 2026-05-05 20:59 | 55.94696 | -3.37567 | 111 ft | 27 kts | 239° |
| 2026-05-05 20:59 | 55.94600 | -3.37856 | 111 ft | 28 kts | 238° |
| 2026-05-05 21:00 | 55.94495 | -3.38164 | 110 ft | 31 kts | 239° |
| 2026-05-05 21:00 | 55.94383 | -3.38496 | 115 ft | 31 kts | 239° |
| 2026-05-05 21:00 | 55.94283 | -3.38796 | 118 ft | 19 kts | 253° |
| 2026-05-05 21:00 | 55.94325 | -3.38907 | 120 ft | 0 kts | 326° |
| 2026-05-05 21:01 | 55.94328 | -3.38911 | 120 ft | 4 kts | 326° |
| 2026-05-05 21:01 | 55.94404 | -3.38958 | 115 ft | 17 kts | 14° |
| 2026-05-05 21:02 | 55.94490 | -3.38745 | 114 ft | 27 kts | 59° |
| 2026-05-05 21:02 | 55.94642 | -3.38294 | 115 ft | 77 kts | 59° |
| 2026-05-05 21:02 | 55.95047 | -3.37090 | 110 ft | 145 kts | 59° |
| 2026-05-05 21:02 | 55.95629 | -3.35382 | 524 ft | 170 kts | 60° |
| 2026-05-05 21:03 | 55.96353 | -3.33735 | 1529 ft | 169 kts | 44° |
| 2026-05-05 21:03 | 55.97241 | -3.32316 | 2436 ft | 179 kts | 44° |
| 2026-05-05 21:03 | 55.98204 | -3.30762 | 2784 ft | 197 kts | 44° |
| 2026-05-05 21:03 | 55.99266 | -3.29042 | 3102 ft | 218 kts | 43° |
| 2026-05-05 21:04 | 56.00450 | -3.27131 | 3562 ft | 239 kts | 43° |
| 2026-05-05 21:04 | 56.01703 | -3.25118 | 4407 ft | 245 kts | 42° |
| 2026-05-05 21:04 | 56.02962 | -3.23095 | 5279 ft | 249 kts | 41° |
| 2026-05-05 21:04 | 56.04257 | -3.20956 | 5840 ft | 257 kts | 46° |
| 2026-05-05 21:05 | 56.05061 | -3.18102 | 5976 ft | 264 kts | 79° |
| 2026-05-05 21:05 | 56.04988 | -3.14793 | 6007 ft | 269 kts | 94° |
| 2026-05-05 21:05 | 56.04716 | -3.11479 | 6003 ft | 270 kts | 101° |
| 2026-05-05 21:05 | 56.03927 | -3.08422 | 6004 ft | 274 kts | 125° |
| 2026-05-05 21:06 | 56.02544 | -3.06070 | 6006 ft | 277 kts | 142° |
| 2026-05-05 21:06 | 56.00994 | -3.04003 | 6004 ft | 278 kts | 141° |
| 2026-05-05 21:06 | 55.99448 | -3.01927 | 6003 ft | 278 kts | 143° |
| 2026-05-05 21:06 | 55.97788 | -3.00145 | 6002 ft | 280 kts | 154° |
| 2026-05-05 21:07 | 55.95931 | -2.99346 | 6000 ft | 280 kts | 182° |
| 2026-05-05 21:07 | 55.94068 | -3.00205 | 6007 ft | 279 kts | 206° |
| 2026-05-05 21:07 | 55.92306 | -3.01666 | 6005 ft | 279 kts | 206° |
| 2026-05-05 21:07 | 55.90541 | -3.03096 | 6003 ft | 279 kts | 205° |
| 2026-05-05 21:08 | 55.88772 | -3.04509 | 6006 ft | 280 kts | 205° |
| 2026-05-05 21:08 | 55.86994 | -3.05922 | 6004 ft | 279 kts | 205° |
| 2026-05-05 21:08 | 55.85217 | -3.07335 | 6004 ft | 280 kts | 205° |
| 2026-05-05 21:08 | 55.83443 | -3.08746 | 6003 ft | 279 kts | 205° |
| 2026-05-05 21:09 | 55.81667 | -3.10157 | 6003 ft | 279 kts | 205° |
| 2026-05-05 21:09 | 55.79918 | -3.11548 | 6003 ft | 279 kts | 205° |
| 2026-05-05 21:09 | 55.78146 | -3.12960 | 6003 ft | 279 kts | 205° |
| 2026-05-05 21:09 | 55.76370 | -3.14373 | 6002 ft | 280 kts | 205° |
| 2026-05-05 21:10 | 55.74597 | -3.15785 | 5999 ft | 280 kts | 205° |
| 2026-05-05 21:10 | 55.72826 | -3.17198 | 5998 ft | 278 kts | 205° |
| 2026-05-05 21:10 | 55.71066 | -3.18598 | 5996 ft | 276 kts | 205° |
| 2026-05-05 21:10 | 55.69310 | -3.19991 | 5996 ft | 277 kts | 205° |
| 2026-05-05 21:11 | 55.67549 | -3.21383 | 5995 ft | 277 kts | 205° |
| 2026-05-05 21:11 | 55.65807 | -3.22761 | 5995 ft | 278 kts | 205° |
| 2026-05-05 21:11 | 55.64044 | -3.24158 | 5993 ft | 278 kts | 205° |
| 2026-05-05 21:11 | 55.62280 | -3.25556 | 5992 ft | 277 kts | 205° |
| 2026-05-05 21:12 | 55.60522 | -3.26942 | 5989 ft | 277 kts | 205° |
| 2026-05-05 21:12 | 55.58756 | -3.28326 | 5989 ft | 277 kts | 205° |
| 2026-05-05 21:12 | 55.56992 | -3.29708 | 5989 ft | 278 kts | 205° |
| 2026-05-05 21:12 | 55.55229 | -3.31095 | 5988 ft | 277 kts | 205° |
| 2026-05-05 21:13 | 55.53467 | -3.32482 | 5993 ft | 277 kts | 205° |
| 2026-05-05 21:13 | 55.51707 | -3.33867 | 5981 ft | 276 kts | 205° |
| 2026-05-05 21:13 | 55.49914 | -3.34956 | 5984 ft | 277 kts | 193° |
| 2026-05-05 21:13 | 55.48001 | -3.35257 | 5985 ft | 278 kts | 180° |
| 2026-05-05 21:14 | 55.46040 | -3.35215 | 6485 ft | 283 kts | 181° |
| 2026-05-05 21:14 | 55.44070 | -3.35182 | 7406 ft | 284 kts | 181° |
| 2026-05-05 21:14 | 55.42084 | -3.35156 | 8272 ft | 287 kts | 181° |
| 2026-05-05 21:14 | 55.40069 | -3.35132 | 9073 ft | 291 kts | 181° |
| 2026-05-05 21:15 | 55.38020 | -3.35108 | 9759 ft | 299 kts | 182° |
| 2026-05-05 21:15 | 55.35935 | -3.35082 | 9945 ft | 301 kts | 182° |
| 2026-05-05 21:15 | 55.33763 | -3.35056 | 9987 ft | 320 kts | 182° |
| 2026-05-05 21:15 | 55.31608 | -3.35022 | 9974 ft | 307 kts | 182° |
| 2026-05-05 21:16 | 55.29501 | -3.34981 | 10046 ft | 303 kts | 181° |
| 2026-05-05 21:16 | 55.27346 | -3.34944 | 10450 ft | 319 kts | 182° |
| 2026-05-05 21:16 | 55.25051 | -3.34911 | 10688 ft | 340 kts | 182° |
| 2026-05-05 21:16 | 55.22649 | -3.34873 | 11251 ft | 348 kts | 182° |
| 2026-05-05 21:17 | 55.20213 | -3.34830 | 11938 ft | 352 kts | 182° |
| 2026-05-05 21:17 | 55.17758 | -3.34786 | 12659 ft | 354 kts | 182° |
| 2026-05-05 21:17 | 55.15286 | -3.34747 | 13363 ft | 357 kts | 182° |
| 2026-05-05 21:17 | 55.12793 | -3.34709 | 14047 ft | 360 kts | 182° |
| 2026-05-05 21:18 | 55.10312 | -3.34670 | 14650 ft | 362 kts | 182° |
| 2026-05-05 21:18 | 55.07783 | -3.34630 | 15256 ft | 365 kts | 182° |
| 2026-05-05 21:18 | 55.05231 | -3.34589 | 15849 ft | 368 kts | 182° |
| 2026-05-05 21:18 | 55.02666 | -3.34542 | 16430 ft | 370 kts | 182° |
| 2026-05-05 21:19 | 55.00081 | -3.34492 | 17037 ft | 373 kts | 182° |
| 2026-05-05 21:19 | 54.97477 | -3.34445 | 17620 ft | 376 kts | 182° |
| 2026-05-05 21:19 | 54.94853 | -3.34408 | 18195 ft | 378 kts | 183° |
| 2026-05-05 21:19 | 54.92209 | -3.34377 | 18733 ft | 381 kts | 183° |
| 2026-05-05 21:20 | 54.89583 | -3.34349 | 19252 ft | 384 kts | 182° |
| 2026-05-05 21:20 | 54.86906 | -3.34314 | 19794 ft | 386 kts | 182° |
| 2026-05-05 21:20 | 54.84211 | -3.34273 | 20324 ft | 389 kts | 182° |
| 2026-05-05 21:20 | 54.81498 | -3.34229 | 20836 ft | 391 kts | 182° |
| 2026-05-05 21:21 | 54.78765 | -3.34187 | 21328 ft | 394 kts | 182° |
| 2026-05-05 21:21 | 54.76021 | -3.34145 | 21814 ft | 396 kts | 182° |
| 2026-05-05 21:21 | 54.73253 | -3.34100 | 22305 ft | 399 kts | 182° |
| 2026-05-05 21:21 | 54.70467 | -3.33957 | 22757 ft | 402 kts | 180° |
| 2026-05-05 21:22 | 54.67667 | -3.33608 | 23244 ft | 405 kts | 177° |
| 2026-05-05 21:22 | 54.64894 | -3.33131 | 23706 ft | 407 kts | 176° |
| 2026-05-05 21:22 | 54.62065 | -3.32594 | 24098 ft | 410 kts | 176° |
| 2026-05-05 21:22 | 54.59224 | -3.32057 | 24485 ft | 412 kts | 176° |
| 2026-05-05 21:23 | 54.56367 | -3.31543 | 24868 ft | 414 kts | 177° |
| 2026-05-05 21:23 | 54.53492 | -3.31056 | 25249 ft | 416 kts | 177° |
| 2026-05-05 21:23 | 54.50605 | -3.30594 | 25637 ft | 418 kts | 178° |
| 2026-05-05 21:23 | 54.47699 | -3.30142 | 26008 ft | 420 kts | 178° |
| 2026-05-05 21:24 | 54.44782 | -3.29693 | 26369 ft | 422 kts | 178° |
| 2026-05-05 21:24 | 54.41845 | -3.29242 | 26733 ft | 425 kts | 178° |
| 2026-05-05 21:24 | 54.38933 | -3.28788 | 27082 ft | 427 kts | 178° |
| 2026-05-05 21:24 | 54.35968 | -3.28327 | 27445 ft | 429 kts | 178° |
| 2026-05-05 21:25 | 54.32985 | -3.27859 | 27808 ft | 431 kts | 178° |
| 2026-05-05 21:25 | 54.29995 | -3.27387 | 28170 ft | 434 kts | 178° |
| 2026-05-05 21:25 | 54.26979 | -3.26916 | 28529 ft | 436 kts | 178° |
| 2026-05-05 21:25 | 54.23954 | -3.26443 | 28887 ft | 438 kts | 178° |
| 2026-05-05 21:26 | 54.20911 | -3.25964 | 29239 ft | 440 kts | 178° |
| 2026-05-05 21:26 | 54.17854 | -3.25484 | 29566 ft | 442 kts | 178° |
| 2026-05-05 21:26 | 54.14779 | -3.25003 | 29903 ft | 445 kts | 178° |
| 2026-05-05 21:26 | 54.11740 | -3.24535 | 30323 ft | 444 kts | 178° |
| 2026-05-05 21:27 | 54.08669 | -3.24061 | 30751 ft | 443 kts | 178° |
| 2026-05-05 21:27 | 54.05607 | -3.23585 | 31176 ft | 442 kts | 178° |
| 2026-05-05 21:27 | 54.02550 | -3.23109 | 31598 ft | 440 kts | 178° |
| 2026-05-05 21:27 | 53.99507 | -3.22504 | 32028 ft | 441 kts | 172° |
| 2026-05-05 21:28 | 53.96507 | -3.21387 | 32456 ft | 441 kts | 170° |
| 2026-05-05 21:28 | 53.93512 | -3.20238 | 32876 ft | 440 kts | 170° |
| 2026-05-05 21:28 | 53.90527 | -3.19101 | 33288 ft | 440 kts | 170° |
| 2026-05-05 21:28 | 53.87586 | -3.17988 | 33706 ft | 439 kts | 170° |
| 2026-05-05 21:29 | 53.84606 | -3.16865 | 34131 ft | 438 kts | 170° |
| 2026-05-05 21:29 | 53.81637 | -3.15748 | 34475 ft | 437 kts | 170° |
| 2026-05-05 21:29 | 53.78669 | -3.14629 | 34795 ft | 437 kts | 170° |
| 2026-05-05 21:29 | 53.75703 | -3.13512 | 35015 ft | 438 kts | 170° |
| 2026-05-05 21:30 | 53.69705 | -3.11254 | 35058 ft | 444 kts | 170° |
| 2026-05-05 21:30 | 53.63667 | -3.08982 | 35065 ft | 445 kts | 170° |
| 2026-05-05 21:31 | 53.57666 | -3.06737 | 35064 ft | 445 kts | 170° |
| 2026-05-05 21:31 | 53.51615 | -3.04485 | 35065 ft | 445 kts | 170° |
| 2026-05-05 21:32 | 53.45570 | -3.02235 | 35067 ft | 445 kts | 170° |
| 2026-05-05 21:32 | 53.39517 | -2.99986 | 35084 ft | 446 kts | 170° |
| 2026-05-05 21:33 | 53.33502 | -2.97769 | 35093 ft | 446 kts | 170° |
| 2026-05-05 21:33 | 53.27440 | -2.95539 | 35095 ft | 446 kts | 170° |
| 2026-05-05 21:34 | 53.21384 | -2.93310 | 35059 ft | 446 kts | 170° |
| 2026-05-05 21:34 | 53.15325 | -2.91083 | 35065 ft | 446 kts | 170° |
| 2026-05-05 21:35 | 53.09256 | -2.88915 | 35067 ft | 445 kts | 173° |
| 2026-05-05 21:35 | 53.03161 | -2.88666 | 35068 ft | 441 kts | 185° |
| 2026-05-05 21:36 | 52.97037 | -2.89204 | 35048 ft | 441 kts | 185° |
| 2026-05-05 21:36 | 52.90904 | -2.89722 | 35052 ft | 442 kts | 185° |
| 2026-05-05 21:37 | 52.84819 | -2.90922 | 35054 ft | 441 kts | 190° |
| 2026-05-05 21:37 | 52.78786 | -2.92342 | 35049 ft | 441 kts | 190° |
| 2026-05-05 21:38 | 52.72701 | -2.93766 | 35052 ft | 441 kts | 190° |
| 2026-05-05 21:38 | 52.66567 | -2.94514 | 35051 ft | 443 kts | 185° |
| 2026-05-05 21:39 | 52.60443 | -2.95026 | 35055 ft | 444 kts | 185° |
| 2026-05-05 21:39 | 52.54275 | -2.95532 | 35059 ft | 444 kts | 185° |
| 2026-05-05 21:40 | 52.48100 | -2.96037 | 35049 ft | 444 kts | 184° |
| 2026-05-05 21:40 | 52.41916 | -2.96541 | 35040 ft | 446 kts | 184° |
| 2026-05-05 21:41 | 52.35715 | -2.97045 | 35040 ft | 447 kts | 184° |
| 2026-05-05 21:41 | 52.29547 | -2.97543 | 35041 ft | 447 kts | 185° |
| 2026-05-05 21:42 | 52.23341 | -2.98048 | 35045 ft | 447 kts | 184° |
| 2026-05-05 21:42 | 52.17130 | -2.98553 | 35043 ft | 447 kts | 184° |
| 2026-05-05 21:43 | 52.10904 | -2.99063 | 35044 ft | 448 kts | 184° |
| 2026-05-05 21:43 | 52.04680 | -2.99583 | 35047 ft | 448 kts | 184° |
| 2026-05-05 21:44 | 51.98487 | -3.00087 | 35051 ft | 449 kts | 184° |
| 2026-05-05 21:44 | 51.92244 | -3.00576 | 35043 ft | 450 kts | 184° |
| 2026-05-05 21:45 | 51.85987 | -3.01162 | 35052 ft | 450 kts | 186° |
| 2026-05-05 21:45 | 51.79768 | -3.02387 | 35061 ft | 450 kts | 189° |
| 2026-05-05 21:46 | 51.73608 | -3.03876 | 35060 ft | 451 kts | 189° |
| 2026-05-05 21:46 | 51.67394 | -3.05277 | 35062 ft | 451 kts | 188° |
| 2026-05-05 21:47 | 51.61176 | -3.06546 | 35076 ft | 449 kts | 188° |
| 2026-05-05 21:47 | 51.54986 | -3.07784 | 35070 ft | 447 kts | 188° |
| 2026-05-05 21:48 | 51.51942 | -3.08408 | 34807 ft | 448 kts | 188° |
| 2026-05-05 21:48 | 51.48813 | -3.09054 | 33676 ft | 460 kts | 188° |
| 2026-05-05 21:48 | 51.45627 | -3.09710 | 32665 ft | 460 kts | 188° |
| 2026-05-05 21:48 | 51.42461 | -3.10360 | 31496 ft | 456 kts | 189° |
| 2026-05-05 21:49 | 51.39386 | -3.11378 | 30512 ft | 448 kts | 199° |
| 2026-05-05 21:49 | 51.36528 | -3.13208 | 29500 ft | 438 kts | 208° |
| 2026-05-05 21:49 | 51.33968 | -3.15734 | 28426 ft | 428 kts | 218° |
| 2026-05-05 21:49 | 51.31678 | -3.18646 | 27828 ft | 411 kts | 219° |
| 2026-05-05 21:50 | 51.29488 | -3.21421 | 27369 ft | 394 kts | 219° |
| 2026-05-05 21:50 | 51.27401 | -3.24039 | 26923 ft | 379 kts | 219° |
| 2026-05-05 21:50 | 51.25367 | -3.26580 | 26500 ft | 365 kts | 219° |
| 2026-05-05 21:50 | 51.23402 | -3.29031 | 26092 ft | 353 kts | 219° |
| 2026-05-05 21:51 | 51.21462 | -3.31453 | 25707 ft | 356 kts | 219° |
| 2026-05-05 21:51 | 51.19516 | -3.33887 | 25299 ft | 355 kts | 219° |
| 2026-05-05 21:51 | 51.17628 | -3.36466 | 24973 ft | 365 kts | 227° |
| 2026-05-05 21:51 | 51.15902 | -3.39529 | 24793 ft | 377 kts | 230° |
| 2026-05-05 21:52 | 51.12391 | -3.45876 | 23642 ft | 383 kts | 230° |
| 2026-05-05 21:52 | 51.10634 | -3.49023 | 23184 ft | 379 kts | 230° |
| 2026-05-05 21:52 | 51.08891 | -3.52138 | 22747 ft | 374 kts | 230° |
| 2026-05-05 21:53 | 51.07153 | -3.55249 | 21787 ft | 382 kts | 230° |
| 2026-05-05 21:53 | 51.05366 | -3.58446 | 21044 ft | 387 kts | 229° |
| 2026-05-05 21:53 | 51.03604 | -3.61599 | 20788 ft | 377 kts | 230° |
| 2026-05-05 21:53 | 51.01884 | -3.64675 | 20531 ft | 367 kts | 230° |
| 2026-05-05 21:54 | 51.00208 | -3.67669 | 20281 ft | 360 kts | 230° |
| 2026-05-05 21:54 | 50.98578 | -3.70584 | 20014 ft | 354 kts | 230° |
| 2026-05-05 21:54 | 50.96949 | -3.73490 | 19593 ft | 351 kts | 229° |
| 2026-05-05 21:54 | 50.95330 | -3.76375 | 19149 ft | 349 kts | 229° |
| 2026-05-05 21:55 | 50.93718 | -3.79245 | 18695 ft | 348 kts | 230° |
| 2026-05-05 21:55 | 50.92110 | -3.82102 | 18254 ft | 346 kts | 230° |
| 2026-05-05 21:55 | 50.90513 | -3.84936 | 17758 ft | 344 kts | 230° |
| 2026-05-05 21:55 | 50.88925 | -3.87752 | 17312 ft | 341 kts | 230° |
| 2026-05-05 21:56 | 50.87353 | -3.90533 | 16868 ft | 338 kts | 229° |
| 2026-05-05 21:56 | 50.85791 | -3.93293 | 16442 ft | 335 kts | 229° |
| 2026-05-05 21:56 | 50.84265 | -3.95990 | 16001 ft | 333 kts | 230° |
| 2026-05-05 21:56 | 50.82722 | -3.98717 | 15562 ft | 331 kts | 230° |
| 2026-05-05 21:57 | 50.81191 | -4.01424 | 15124 ft | 329 kts | 229° |
| 2026-05-05 21:57 | 50.79666 | -4.04111 | 14693 ft | 328 kts | 229° |
| 2026-05-05 21:57 | 50.78141 | -4.06788 | 14261 ft | 327 kts | 229° |
| 2026-05-05 21:57 | 50.76618 | -4.09459 | 13829 ft | 326 kts | 229° |
| 2026-05-05 21:58 | 50.75101 | -4.12119 | 13352 ft | 325 kts | 229° |
| 2026-05-05 21:58 | 50.73591 | -4.14769 | 12937 ft | 323 kts | 229° |
| 2026-05-05 21:58 | 50.72115 | -4.17357 | 12516 ft | 321 kts | 229° |
| 2026-05-05 21:58 | 50.70619 | -4.19974 | 12094 ft | 320 kts | 229° |
| 2026-05-05 21:59 | 50.69131 | -4.22573 | 11676 ft | 319 kts | 230° |
| 2026-05-05 21:59 | 50.67644 | -4.25168 | 11257 ft | 318 kts | 230° |
| 2026-05-05 21:59 | 50.66162 | -4.27756 | 10845 ft | 317 kts | 230° |
| 2026-05-05 21:59 | 50.64686 | -4.30335 | 10433 ft | 317 kts | 230° |
| 2026-05-05 22:00 | 50.63218 | -4.32888 | 10219 ft | 309 kts | 230° |
| 2026-05-05 22:00 | 50.61796 | -4.35356 | 10093 ft | 299 kts | 230° |
| 2026-05-05 22:00 | 50.60435 | -4.37725 | 9885 ft | 293 kts | 230° |
| 2026-05-05 22:00 | 50.59064 | -4.40110 | 9454 ft | 296 kts | 230° |
| 2026-05-05 22:01 | 50.57690 | -4.42491 | 9066 ft | 294 kts | 230° |
| 2026-05-05 22:01 | 50.56317 | -4.44867 | 8545 ft | 290 kts | 229° |
| 2026-05-05 22:01 | 50.54961 | -4.47211 | 7907 ft | 289 kts | 229° |
| 2026-05-05 22:01 | 50.53621 | -4.49529 | 7374 ft | 284 kts | 229° |
| 2026-05-05 22:02 | 50.52296 | -4.51816 | 6872 ft | 283 kts | 229° |
| 2026-05-05 22:02 | 50.50959 | -4.54129 | 6472 ft | 286 kts | 229° |
| 2026-05-05 22:02 | 50.49631 | -4.56421 | 6191 ft | 282 kts | 229° |
| 2026-05-05 22:02 | 50.48330 | -4.58668 | 5845 ft | 281 kts | 228° |
| 2026-05-05 22:03 | 50.47019 | -4.60927 | 5506 ft | 278 kts | 228° |
| 2026-05-05 22:03 | 50.45717 | -4.63166 | 4899 ft | 277 kts | 227° |
| 2026-05-05 22:03 | 50.44416 | -4.65404 | 4245 ft | 278 kts | 229° |
| 2026-05-05 22:03 | 50.43125 | -4.67622 | 3821 ft | 270 kts | 229° |
| 2026-05-05 22:04 | 50.41896 | -4.69716 | 3661 ft | 252 kts | 229° |
| 2026-05-05 22:04 | 50.40750 | -4.71663 | 3547 ft | 234 kts | 230° |
| 2026-05-05 22:04 | 50.39669 | -4.73507 | 3457 ft | 228 kts | 229° |
| 2026-05-05 22:04 | 50.38621 | -4.75299 | 3348 ft | 219 kts | 231° |
| 2026-05-05 22:05 | 50.37786 | -4.77183 | 3194 ft | 209 kts | 250° |
| 2026-05-05 22:05 | 50.37405 | -4.79320 | 3052 ft | 199 kts | 268° |
| 2026-05-05 22:05 | 50.37469 | -4.81396 | 2854 ft | 182 kts | 287° |
| 2026-05-05 22:05 | 50.37878 | -4.83137 | 2662 ft | 156 kts | 304° |
| 2026-05-05 22:06 | 50.38401 | -4.84529 | 2449 ft | 143 kts | 306° |
| 2026-05-05 22:06 | 50.38903 | -4.85850 | 2257 ft | 140 kts | 306° |
| 2026-05-05 22:06 | 50.39396 | -4.87148 | 2066 ft | 137 kts | 307° |
| 2026-05-05 22:06 | 50.39881 | -4.88428 | 1883 ft | 136 kts | 307° |
| 2026-05-05 22:07 | 50.40360 | -4.89693 | 1717 ft | 134 kts | 307° |
| 2026-05-05 22:07 | 50.40827 | -4.90927 | 1504 ft | 133 kts | 306° |
| 2026-05-05 22:07 | 50.41295 | -4.92177 | 1296 ft | 133 kts | 306° |
| 2026-05-05 22:07 | 50.41754 | -4.93440 | 988 ft | 133 kts | 305° |
| 2026-05-05 22:08 | 50.42244 | -4.94664 | 779 ft | 134 kts | 306° |
| 2026-05-05 22:08 | 50.42725 | -4.95926 | 632 ft | 135 kts | 302° |
| 2026-05-05 22:08 | 50.43196 | -4.97201 | 478 ft | 133 kts | 303° |
| 2026-05-05 22:08 | 50.43659 | -4.98443 | 417 ft | 131 kts | 303° |
| 2026-05-05 22:09 | 50.44056 | -4.99470 | 359 ft | 76 kts | 298° |
| 2026-05-05 22:09 | 50.44171 | -4.99784 | 348 ft | 3 kts | 301° |
| 2026-05-05 22:09 | 50.44246 | -4.99985 | 335 ft | 38 kts | 301° |
| 2026-05-05 22:09 | 50.44394 | -5.00385 | 329 ft | 24 kts | 291° |
| 2026-05-05 22:10 | 50.44345 | -5.00507 | 328 ft | 7 kts | 227° |
| 2026-05-05 22:10 | 50.44317 | -5.00589 | 327 ft | 10 kts | 252° |
| 2026-05-05 22:10 | 50.44289 | -5.00719 | 324 ft | 15 kts | 248° |
| 2026-05-05 22:10 | 50.44244 | -5.00882 | 324 ft | 12 kts | 247° |
| 2026-05-05 22:11 | 50.44188 | -5.00917 | 325 ft | 0 kts | 162° |
| 2026-05-05 22:11 | 50.44183 | -5.00914 | 325 ft | 2 kts | 160° |
| 2026-05-05 22:11 | 50.44178 | -5.00911 | 322 ft | 0 kts | 160° |